Time;durP1;ratioP1;P1;durP2;ratioP2;P2;SDS_P1;SDS_P2;PMS_P1;PMS_P2;Temp;Humidity;BMP_temperature;BMP_pressure;BME280_temperature;BME280_humidity;BME280_pressure;Samples;Min_cycle;Max_cycle;Signal;HPM_P1;HPM_P2
2023/12/20 00:01:04;;;;;;;7.97;1.65;;;5.60;99.90;;;;;;5052070;28;20111;-79
2023/12/20 00:03:30;;;;;;;10.55;1.73;;;5.80;99.90;;;;;;5052020;28;20610;-79
2023/12/20 00:05:55;;;;;;;10.52;1.63;;;5.50;99.90;;;;;;5050400;28;20040;-79
2023/12/20 00:08:21;;;;;;;12.32;1.80;;;5.60;99.90;;;;;;5051684;28;20037;-80
2023/12/20 00:10:47;;;;;;;10.55;1.83;;;5.50;99.90;;;;;;5078765;28;20037;-80
2023/12/20 00:13:12;;;;;;;12.43;1.92;;;5.50;99.90;;;;;;5051453;28;20033;-79
2023/12/20 00:15:38;;;;;;;15.32;2.35;;;5.50;99.90;;;;;;5048936;28;20083;-79
2023/12/20 00:18:04;;;;;;;8.95;1.95;;;5.50;99.90;;;;;;5049398;28;20104;-80
2023/12/20 00:20:29;;;;;;;10.77;1.90;;;5.50;99.90;;;;;;5051980;28;20120;-79
2023/12/20 00:22:58;;;;;;;16.60;2.55;;;5.50;99.90;;;;;;5077310;28;20083;-79
2023/12/20 00:25:24;;;;;;;11.38;1.90;;;5.50;99.90;;;;;;5046347;28;20152;-79
2023/12/20 00:27:50;;;;;;;14.52;2.38;;;5.50;99.90;;;;;;5050449;28;20136;-79
2023/12/20 00:30:16;;;;;;;9.52;2.05;;;5.30;99.90;;;;;;5034215;28;20029;-79
2023/12/20 00:32:46;;;;;;;8.18;1.73;;;5.50;99.90;;;;;;5044888;28;20042;-79
2023/12/20 00:35:13;;;;;;;8.45;1.63;;;5.50;99.90;;;;;;5078351;28;20447;-80
2023/12/20 00:37:38;;;;;;;12.55;1.90;;;5.50;99.90;;;;;;5048150;28;20045;-79
2023/12/20 00:40:05;;;;;;;12.90;1.98;;;5.40;99.90;;;;;;5042364;28;20106;-79
2023/12/20 00:42:30;;;;;;;12.30;1.73;;;5.50;99.90;;;;;;5076527;28;20103;-79
2023/12/20 00:44:56;;;;;;;9.95;2.03;;;5.50;99.90;;;;;;5041778;28;20520;-79
2023/12/20 00:47:22;;;;;;;13.15;2.33;;;5.50;99.90;;;;;;5050331;28;20037;-79
2023/12/20 00:49:47;;;;;;;9.18;1.70;;;5.40;99.90;;;;;;5046007;28;20064;-80
2023/12/20 00:52:14;;;;;;;12.02;2.40;;;5.40;99.90;;;;;;5047199;28;20029;-79
2023/12/20 00:54:39;;;;;;;11.00;2.17;;;5.40;99.90;;;;;;5046448;28;20059;-79
2023/12/20 00:57:05;;;;;;;13.20;2.00;;;5.40;99.90;;;;;;5052454;28;20040;-79
2023/12/20 00:59:30;;;;;;;13.07;1.88;;;5.40;99.90;;;;;;5046444;28;20040;-78
2023/12/20 01:01:56;;;;;;;12.07;2.60;;;5.40;99.90;;;;;;5042494;28;20041;-79
2023/12/20 01:04:22;;;;;;;12.70;2.50;;;5.40;99.90;;;;;;5043377;28;20068;-80
2023/12/20 01:06:47;;;;;;;10.18;1.90;;;5.40;99.90;;;;;;5081656;28;20041;-79
2023/12/20 01:09:13;;;;;;;12.38;1.98;;;5.40;99.90;;;;;;5048162;28;20029;-79
2023/12/20 01:11:38;;;;;;;16.67;2.60;;;5.40;99.90;;;;;;5049860;28;20037;-79
2023/12/20 01:14:04;;;;;;;15.38;2.90;;;5.50;99.90;;;;;;5049601;28;20052;-80
2023/12/20 01:16:30;;;;;;;15.20;2.40;;;5.50;99.90;;;;;;5051037;28;20055;-79
2023/12/20 01:18:56;;;;;;;16.02;2.33;;;5.50;99.90;;;;;;5050122;28;20470;-80
2023/12/20 01:21:21;;;;;;;18.50;3.17;;;5.60;99.90;;;;;;5049795;28;20128;-79
2023/12/20 01:23:47;;;;;;;16.02;3.00;;;5.60;99.90;;;;;;5045306;28;20511;-80
2023/12/20 01:26:14;;;;;;;16.85;2.83;;;5.60;99.90;;;;;;5043237;28;20463;-79
2023/12/20 01:28:39;;;;;;;12.68;1.95;;;5.60;99.90;;;;;;5047040;28;20037;-79
2023/12/20 01:31:06;;;;;;;13.95;3.25;;;5.60;99.90;;;;;;5050077;28;20119;-79
2023/12/20 01:33:31;;;;;;;14.90;2.35;;;5.60;99.90;;;;;;5048213;28;20056;-80
2023/12/20 01:35:57;;;;;;;25.05;4.95;;;5.70;99.90;;;;;;5073795;28;20065;-79
2023/12/20 01:38:22;;;;;;;15.32;2.88;;;5.80;99.90;;;;;;5059247;28;20114;-79
2023/12/20 01:40:48;;;;;;;13.23;2.78;;;5.80;99.90;;;;;;5079296;28;20045;-78
2023/12/20 01:43:14;;;;;;;12.80;3.20;;;5.80;99.90;;;;;;5050295;28;20032;-79
2023/12/20 01:45:39;;;;;;;14.02;2.88;;;5.80;99.90;;;;;;5042724;28;20456;-79
2023/12/20 01:48:06;;;;;;;11.95;2.10;;;5.80;99.90;;;;;;5045864;28;20040;-79
2023/12/20 01:50:34;;;;;;;10.82;1.90;;;5.70;99.90;;;;;;5045634;28;20044;-79
2023/12/20 01:53:01;;;;;;;15.90;2.22;;;5.70;99.90;;;;;;5047027;28;20041;-79
2023/12/20 01:55:31;;;;;;;9.77;1.70;;;5.60;99.90;;;;;;5039620;28;20052;-79
2023/12/20 01:57:57;;;;;;;11.57;2.10;;;5.60;99.90;;;;;;5044467;28;20120;-79
2023/12/20 02:00:26;;;;;;;9.23;2.33;;;5.50;99.90;;;;;;5042146;28;20403;-79
2023/12/20 02:02:54;;;;;;;10.70;2.08;;;5.50;99.90;;;;;;5041200;28;20131;-79
2023/12/20 02:05:22;;;;;;;11.63;2.10;;;5.50;99.90;;;;;;5048543;28;20033;-79
2023/12/20 02:07:47;;;;;;;11.48;2.95;;;5.50;99.90;;;;;;5058023;28;20428;-79
2023/12/20 02:10:13;;;;;;;10.18;2.00;;;5.50;99.90;;;;;;5046417;28;20076;-79
2023/12/20 02:12:39;;;;;;;11.15;1.88;;;5.50;99.90;;;;;;5042357;28;20493;-79
2023/12/20 02:15:05;;;;;;;18.20;3.13;;;5.50;99.90;;;;;;5047690;28;20444;-79
2023/12/20 02:17:32;;;;;;;18.40;2.53;;;5.50;99.90;;;;;;5030982;28;20033;-79
2023/12/20 02:19:57;;;;;;;13.85;2.78;;;5.50;99.90;;;;;;5057810;28;20089;-79
2023/12/20 02:22:23;;;;;;;13.93;3.10;;;5.60;99.90;;;;;;5032044;28;20094;-80
2023/12/20 02:24:48;;;;;;;24.48;3.65;;;5.70;99.90;;;;;;5048834;28;20036;-79
2023/12/20 02:27:17;;;;;;;16.38;2.85;;;5.70;99.90;;;;;;5024288;28;20098;-79
2023/12/20 02:29:43;;;;;;;22.42;3.63;;;5.70;99.90;;;;;;5083061;28;20060;-79
2023/12/20 02:32:08;;;;;;;20.00;2.90;;;5.70;99.90;;;;;;5075833;28;20063;-79
2023/12/20 02:34:34;;;;;;;14.20;2.47;;;5.70;99.90;;;;;;5044778;28;20465;-79
2023/12/20 02:37:00;;;;;;;14.65;3.20;;;5.80;99.90;;;;;;5042202;28;20037;-79
2023/12/20 02:39:25;;;;;;;13.48;2.45;;;5.70;99.90;;;;;;5044845;28;20134;-80
2023/12/20 02:41:51;;;;;;;17.33;2.95;;;5.70;99.90;;;;;;5045345;28;20404;-80
2023/12/20 02:44:16;;;;;;;19.40;3.30;;;5.70;99.90;;;;;;5047599;28;20438;-79
2023/12/20 02:46:42;;;;;;;16.48;3.08;;;5.70;99.90;;;;;;5048370;28;20032;-79
2023/12/20 02:49:08;;;;;;;24.58;4.03;;;5.70;99.90;;;;;;5049296;28;20037;-79
2023/12/20 02:51:33;;;;;;;18.67;3.28;;;5.70;99.90;;;;;;5046447;28;20091;-79
2023/12/20 02:53:59;;;;;;;23.98;3.55;;;5.80;99.90;;;;;;5046845;28;20049;-79
2023/12/20 02:56:24;;;;;;;21.75;3.88;;;5.80;99.90;;;;;;5043821;28;20044;-79
2023/12/20 02:58:50;;;;;;;27.90;3.58;;;5.90;99.90;;;;;;5048771;28;20095;-80
2023/12/20 03:01:16;;;;;;;21.45;3.50;;;5.90;99.90;;;;;;5046718;28;20060;-80
2023/12/20 03:03:41;;;;;;;20.70;3.75;;;5.90;99.90;;;;;;5046307;28;20049;-79
2023/12/20 03:06:07;;;;;;;19.98;3.53;;;5.90;99.90;;;;;;5036335;28;20041;-79
2023/12/20 03:08:32;;;;;;;15.98;3.30;;;6.00;99.90;;;;;;5029774;28;20045;-79
2023/12/20 03:11:01;;;;;;;17.30;3.13;;;5.90;99.90;;;;;;5046300;28;20453;-79
2023/12/20 03:13:26;;;;;;;22.70;4.88;;;5.90;99.90;;;;;;5040001;28;20049;-79
2023/12/20 03:15:52;;;;;;;17.63;3.58;;;5.90;99.90;;;;;;5048176;28;20049;-79
2023/12/20 03:18:18;;;;;;;26.60;4.70;;;6.00;99.90;;;;;;5052398;28;20040;-79
2023/12/20 03:20:44;;;;;;;20.77;3.35;;;5.90;99.90;;;;;;5052760;28;20048;-79
2023/12/20 03:23:09;;;;;;;28.08;4.57;;;5.90;99.90;;;;;;5047879;28;20051;-79
2023/12/20 03:25:35;;;;;;;19.95;2.78;;;6.00;99.90;;;;;;5052034;28;20048;-79
2023/12/20 03:28:00;;;;;;;14.85;3.00;;;6.00;99.90;;;;;;5051451;28;20029;-79
2023/12/20 03:30:26;;;;;;;22.65;3.53;;;6.00;99.90;;;;;;5050825;28;20385;-77
2023/12/20 03:32:52;;;;;;;25.48;4.25;;;6.10;99.90;;;;;;5038388;28;20033;-78
2023/12/20 03:35:17;;;;;;;28.88;4.47;;;6.10;99.90;;;;;;5060094;28;20041;-78
2023/12/20 03:37:43;;;;;;;23.38;3.88;;;6.10;99.90;;;;;;5057519;28;20068;-78
2023/12/20 03:40:09;;;;;;;18.05;3.58;;;6.10;99.90;;;;;;5050345;28;20128;-78
2023/12/20 03:42:36;;;;;;;17.50;3.17;;;6.10;99.90;;;;;;5057118;28;20063;-78
2023/12/20 03:45:02;;;;;;;23.80;4.10;;;6.10;99.90;;;;;;5057835;28;20037;-77
2023/12/20 03:47:27;;;;;;;18.65;3.95;;;6.10;99.90;;;;;;5056645;28;20033;-78
2023/12/20 03:49:53;;;;;;;22.98;3.47;;;6.10;99.90;;;;;;5041574;28;20146;-77
2023/12/20 03:52:19;;;;;;;23.33;3.90;;;6.10;99.90;;;;;;5059494;28;20044;-77
2023/12/20 03:54:44;;;;;;;25.15;3.85;;;6.10;99.90;;;;;;5058496;28;20033;-78
2023/12/20 03:57:10;;;;;;;20.65;3.38;;;6.10;99.90;;;;;;5053854;28;20042;-79
2023/12/20 03:59:36;;;;;;;16.88;3.47;;;6.10;99.90;;;;;;5059786;28;20036;-78
2023/12/20 04:02:02;;;;;;;25.23;3.88;;;6.10;99.90;;;;;;5083573;28;20044;-78
2023/12/20 04:04:28;;;;;;;19.77;4.28;;;6.10;99.90;;;;;;5056969;28;20069;-78
2023/12/20 04:06:54;;;;;;;23.83;4.97;;;6.20;99.90;;;;;;5046591;28;20045;-79
2023/12/20 04:09:19;;;;;;;29.52;3.63;;;6.20;99.90;;;;;;5050188;28;20104;-78
2023/12/20 04:11:45;;;;;;;29.63;4.25;;;6.20;99.90;;;;;;5049193;28;20095;-77
2023/12/20 04:14:11;;;;;;;22.48;3.33;;;6.20;99.90;;;;;;5056973;28;20083;-78
2023/12/20 04:16:36;;;;;;;19.15;3.65;;;6.30;99.90;;;;;;5032723;28;20043;-79
2023/12/20 04:19:02;;;;;;;25.80;3.95;;;6.30;99.90;;;;;;5054523;28;20055;-78
2023/12/20 04:21:28;;;;;;;22.58;3.53;;;6.70;99.90;;;;;;5060297;28;20049;-78
2023/12/20 04:23:53;;;;;;;21.55;3.50;;;6.30;99.90;;;;;;5059340;28;20037;-78
2023/12/20 04:26:19;;;;;;;25.77;3.78;;;6.40;99.90;;;;;;5057310;28;20061;-78
2023/12/20 04:28:44;;;;;;;22.40;3.75;;;6.40;99.90;;;;;;5060387;28;20040;-79
2023/12/20 04:31:10;;;;;;;24.75;4.18;;;6.70;99.90;;;;;;5093533;28;20037;-78
2023/12/20 04:33:36;;;;;;;20.95;3.38;;;6.40;99.90;;;;;;5055956;28;20037;-78
2023/12/20 04:36:01;;;;;;;20.08;3.50;;;6.40;99.90;;;;;;5058241;28;20067;-77
2023/12/20 04:38:27;;;;;;;20.38;3.45;;;6.40;99.90;;;;;;5055156;28;20288;-78
2023/12/20 04:40:52;;;;;;;23.15;4.15;;;6.40;99.90;;;;;;5056841;28;20037;-77
2023/12/20 04:43:18;;;;;;;20.45;4.43;;;6.40;99.90;;;;;;5060036;28;20101;-78
2023/12/20 04:45:43;;;;;;;15.95;3.40;;;6.40;99.90;;;;;;5059437;28;20073;-78
2023/12/20 04:48:09;;;;;;;21.38;3.85;;;6.40;99.90;;;;;;5059669;28;20080;-78
2023/12/20 04:50:35;;;;;;;25.75;3.90;;;6.40;99.90;;;;;;5059884;28;20037;-78
2023/12/20 04:53:00;;;;;;;19.35;3.53;;;6.40;99.90;;;;;;5058126;28;20488;-78
2023/12/20 04:55:26;;;;;;;25.23;4.05;;;6.50;99.90;;;;;;5057743;28;20044;-78
2023/12/20 04:57:52;;;;;;;21.92;3.25;;;6.50;99.90;;;;;;5057985;28;20098;-76
2023/12/20 05:00:17;;;;;;;17.20;3.75;;;6.60;99.90;;;;;;5035193;28;20041;-78
2023/12/20 05:02:43;;;;;;;22.13;3.20;;;6.70;99.90;;;;;;5059629;28;20384;-78
2023/12/20 05:05:09;;;;;;;24.77;3.90;;;6.70;99.90;;;;;;5054747;28;20101;-78
2023/12/20 05:07:35;;;;;;;19.33;3.70;;;6.70;99.90;;;;;;5059629;28;20040;-78
2023/12/20 05:10:00;;;;;;;25.75;4.22;;;6.70;99.90;;;;;;5058151;28;20484;-77
2023/12/20 05:12:26;;;;;;;20.20;3.67;;;6.70;99.90;;;;;;5056233;28;20029;-78
2023/12/20 05:14:54;;;;;;;21.10;3.63;;;6.70;99.90;;;;;;5056179;28;20079;-78
2023/12/20 05:17:20;;;;;;;19.90;3.83;;;6.70;99.90;;;;;;5074325;28;20052;-78
2023/12/20 05:19:46;;;;;;;21.23;3.50;;;6.70;99.90;;;;;;5053345;28;20044;-78
2023/12/20 05:22:11;;;;;;;22.50;3.92;;;7.20;99.90;;;;;;5060031;28;20051;-78
2023/12/20 05:24:37;;;;;;;22.52;3.90;;;7.00;99.90;;;;;;5040371;28;20037;-78
2023/12/20 05:27:03;;;;;;;23.02;4.13;;;6.80;99.90;;;;;;5052344;28;20036;-78
2023/12/20 05:29:29;;;;;;;19.55;3.22;;;6.80;99.90;;;;;;5054599;28;20044;-78
2023/12/20 05:31:54;;;;;;;27.52;3.38;;;6.80;99.90;;;;;;5060141;28;20033;-77
2023/12/20 05:34:20;;;;;;;21.27;3.95;;;7.50;99.90;;;;;;5054849;28;20044;-78
2023/12/20 05:36:46;;;;;;;21.05;4.15;;;6.80;99.90;;;;;;5040807;28;20048;-78
2023/12/20 05:39:11;;;;;;;18.45;3.45;;;7.40;99.90;;;;;;5042332;28;20036;-79
2023/12/20 05:41:37;;;;;;;18.98;3.70;;;7.10;99.90;;;;;;5054578;28;20037;-78
2023/12/20 05:44:03;;;;;;;24.45;4.22;;;6.90;99.90;;;;;;5075534;28;20064;-78
2023/12/20 05:46:28;;;;;;;26.00;4.10;;;6.90;99.90;;;;;;5053255;28;20063;-78
2023/12/20 05:48:54;;;;;;;24.38;3.90;;;6.90;99.90;;;;;;5059941;28;20047;-79
2023/12/20 05:51:20;;;;;;;24.52;4.70;;;7.20;99.90;;;;;;5048684;28;20385;-78
2023/12/20 05:53:45;;;;;;;24.83;4.88;;;7.40;99.90;;;;;;5057215;28;20100;-78
2023/12/20 05:56:11;;;;;;;18.88;4.53;;;6.90;99.90;;;;;;5052020;28;20045;-78
2023/12/20 05:58:39;;;;;;;28.45;4.47;;;6.90;99.90;;;;;;5060469;28;20032;-78
2023/12/20 06:01:05;;;;;;;20.48;3.55;;;6.90;99.90;;;;;;5052161;28;20040;-79
2023/12/20 06:03:30;;;;;;;21.95;4.32;;;6.90;99.90;;;;;;5053125;28;20098;-78
2023/12/20 06:05:56;;;;;;;25.10;4.45;;;6.90;99.90;;;;;;5058769;28;20030;-78
2023/12/20 06:08:22;;;;;;;20.38;3.65;;;6.90;99.90;;;;;;5058062;28;20047;-78
2023/12/20 06:10:48;;;;;;;29.10;5.10;;;6.90;99.90;;;;;;5056430;28;20049;-78
2023/12/20 06:13:13;;;;;;;17.95;3.40;;;6.90;99.90;;;;;;5052308;28;20047;-77
2023/12/20 06:15:42;;;;;;;22.67;3.55;;;7.40;99.90;;;;;;5090186;28;20512;-77
2023/12/20 06:18:08;;;;;;;26.85;4.22;;;7.20;99.90;;;;;;5059277;28;20071;-79
2023/12/20 06:20:35;;;;;;;19.50;3.15;;;6.90;99.90;;;;;;5054073;28;20041;-78
2023/12/20 06:23:01;;;;;;;30.90;4.50;;;6.90;99.90;;;;;;5084102;28;20037;-78
2023/12/20 06:25:26;;;;;;;29.45;4.35;;;7.10;99.90;;;;;;5054101;28;20107;-78
2023/12/20 06:27:52;;;;;;;21.58;4.53;;;6.90;99.90;;;;;;5058359;28;20043;-78
2023/12/20 06:30:18;;;;;;;23.85;4.32;;;6.90;99.90;;;;;;5057197;28;20053;-78
2023/12/20 06:32:43;;;;;;;21.73;3.60;;;7.00;99.90;;;;;;5058367;28;20029;-78
2023/12/20 06:35:09;;;;;;;22.58;4.00;;;7.10;99.90;;;;;;5055574;28;20097;-78
2023/12/20 06:37:35;;;;;;;24.90;4.88;;;7.20;99.90;;;;;;5067314;28;20038;-79
2023/12/20 06:40:00;;;;;;;21.85;4.43;;;7.20;99.90;;;;;;5059172;28;20044;-78
2023/12/20 06:42:26;;;;;;;24.02;4.32;;;7.10;99.90;;;;;;5062258;28;20105;-78
2023/12/20 06:44:52;;;;;;;16.05;2.80;;;7.20;99.90;;;;;;5047157;28;20068;-79
2023/12/20 06:47:18;;;;;;;22.30;4.10;;;7.20;99.90;;;;;;5062384;28;20040;-78
2023/12/20 06:49:43;;;;;;;16.48;3.40;;;7.60;99.90;;;;;;5063419;28;20037;-78
2023/12/20 06:52:10;;;;;;;16.65;3.55;;;8.00;99.90;;;;;;5067157;28;20044;-79
2023/12/20 06:54:35;;;;;;;22.42;3.78;;;7.70;99.90;;;;;;5062928;28;20274;-78
2023/12/20 06:57:02;;;;;;;24.58;4.00;;;7.30;99.90;;;;;;5065718;28;20090;-79
2023/12/20 06:59:28;;;;;;;24.20;3.83;;;7.30;99.90;;;;;;5066378;28;20097;-77
2023/12/20 07:01:54;;;;;;;24.00;4.13;;;7.60;99.90;;;;;;5060853;28;20048;-78
2023/12/20 07:04:21;;;;;;;15.63;3.47;;;7.60;99.90;;;;;;5064626;28;20071;-79
2023/12/20 07:06:48;;;;;;;25.02;3.92;;;7.80;99.90;;;;;;5067376;28;20044;-79
2023/12/20 07:09:13;;;;;;;23.55;3.53;;;7.90;99.90;;;;;;5067567;28;20037;-79
2023/12/20 07:11:39;;;;;;;21.23;4.53;;;7.30;99.90;;;;;;5066184;28;20083;-78
2023/12/20 07:14:05;;;;;;;22.67;3.92;;;7.40;99.90;;;;;;5063742;28;20425;-79
2023/12/20 07:16:31;;;;;;;20.52;3.92;;;7.60;99.90;;;;;;5094699;28;20056;-77
2023/12/20 07:18:58;;;;;;;26.48;3.95;;;7.40;99.90;;;;;;5048809;28;20049;-79
2023/12/20 07:21:23;;;;;;;23.73;3.80;;;8.10;99.90;;;;;;5066299;28;20049;-78
2023/12/20 07:23:49;;;;;;;25.73;4.75;;;7.80;99.90;;;;;;5064981;28;20049;-78
2023/12/20 07:26:15;;;;;;;22.63;4.32;;;7.70;99.90;;;;;;5050118;28;20041;-79
2023/12/20 07:28:41;;;;;;;24.98;4.20;;;7.50;99.90;;;;;;5047406;28;20033;-78
2023/12/20 07:31:07;;;;;;;21.98;4.32;;;7.60;99.90;;;;;;5044971;28;20037;-78
2023/12/20 07:33:32;;;;;;;22.73;4.25;;;8.00;99.90;;;;;;5063856;28;20423;-78
2023/12/20 07:35:59;;;;;;;22.77;4.22;;;8.10;99.90;;;;;;5062909;28;20045;-79
2023/12/20 07:38:25;;;;;;;22.90;3.42;;;7.50;99.90;;;;;;5063627;28;20178;-78
2023/12/20 07:40:50;;;;;;;25.42;3.72;;;7.60;99.90;;;;;;5063161;28;20072;-78
2023/12/20 07:43:16;;;;;;;20.00;3.92;;;7.60;99.90;;;;;;5064778;28;20054;-78
2023/12/20 07:45:42;;;;;;;19.20;3.33;;;7.60;99.90;;;;;;5062037;28;20041;-79
2023/12/20 07:48:08;;;;;;;22.48;3.58;;;7.60;99.90;;;;;;5062137;28;20040;-78
2023/12/20 07:50:34;;;;;;;23.92;4.03;;;8.20;99.90;;;;;;5063121;28;20033;-79
2023/12/20 07:53:00;;;;;;;21.75;3.95;;;8.10;99.90;;;;;;5094990;28;20051;-79
2023/12/20 07:55:26;;;;;;;17.30;3.90;;;8.10;99.90;;;;;;5063138;28;20424;-80
2023/12/20 07:57:52;;;;;;;17.95;3.17;;;8.30;99.90;;;;;;5062516;28;20092;-80
2023/12/20 08:00:18;;;;;;;21.30;4.22;;;8.00;99.90;;;;;;5061030;28;20029;-79
2023/12/20 08:02:43;;;;;;;20.13;4.35;;;7.60;99.90;;;;;;5059498;28;20037;-78
2023/12/20 08:05:09;;;;;;;19.35;4.45;;;8.10;99.90;;;;;;5059654;28;20404;-79
2023/12/20 08:07:35;;;;;;;17.42;3.72;;;8.30;99.90;;;;;;5061504;28;20036;-76
2023/12/20 08:10:01;;;;;;;16.92;3.80;;;8.30;99.90;;;;;;5064083;28;20040;-80
2023/12/20 08:12:27;;;;;;;23.05;4.28;;;8.40;99.90;;;;;;5060388;28;20067;-80
2023/12/20 08:14:54;;;;;;;21.40;4.80;;;7.90;99.90;;;;;;5059071;28;20541;-80
2023/12/20 08:17:20;;;;;;;19.50;3.60;;;8.30;99.90;;;;;;5062550;28;20045;-78
2023/12/20 08:19:46;;;;;;;23.92;3.65;;;8.30;99.90;;;;;;5098713;28;20110;-77
2023/12/20 08:22:12;;;;;;;20.40;3.95;;;7.90;99.90;;;;;;5060398;28;20045;-78
2023/12/20 08:24:37;;;;;;;22.17;4.95;;;7.70;99.90;;;;;;5044520;28;20069;-79
2023/12/20 08:27:04;;;;;;;15.25;3.60;;;8.00;99.90;;;;;;5062673;28;20099;-79
2023/12/20 08:29:30;;;;;;;17.13;3.20;;;8.20;99.90;;;;;;5065731;28;20045;-78
2023/12/20 08:31:56;;;;;;;21.17;3.90;;;8.40;99.90;;;;;;5050558;28;20033;-78
2023/12/20 08:34:23;;;;;;;17.60;3.10;;;8.10;99.90;;;;;;5042442;28;20037;-77
2023/12/20 08:36:51;;;;;;;18.48;3.42;;;7.70;99.90;;;;;;5050384;28;20037;-78
2023/12/20 08:39:16;;;;;;;16.70;3.17;;;8.20;99.90;;;;;;5050046;28;20094;-79
2023/12/20 08:41:42;;;;;;;15.32;3.67;;;8.00;99.90;;;;;;5065682;28;20036;-78
2023/12/20 08:44:09;;;;;;;15.00;3.25;;;7.80;99.90;;;;;;5064176;28;20045;-78
2023/12/20 08:46:35;;;;;;;17.73;2.58;;;7.70;99.90;;;;;;5043891;28;20079;-79
2023/12/20 08:49:01;;;;;;;14.43;2.95;;;8.50;99.90;;;;;;5060785;28;20444;-80
2023/12/20 08:51:27;;;;;;;16.92;3.53;;;8.20;99.90;;;;;;5062763;28;20064;-79
2023/12/20 08:53:53;;;;;;;15.02;2.85;;;7.70;99.90;;;;;;5060790;28;20029;-78
2023/12/20 08:56:19;;;;;;;16.58;2.95;;;7.70;99.90;;;;;;5059427;28;20036;-79
2023/12/20 08:58:46;;;;;;;15.80;3.13;;;7.30;99.90;;;;;;5060567;28;20037;-80
2023/12/20 09:01:12;;;;;;;20.42;3.53;;;7.30;99.90;;;;;;5059395;28;20550;-78
2023/12/20 09:03:38;;;;;;;13.50;2.13;;;7.10;99.90;;;;;;5042171;28;20028;-77
2023/12/20 09:06:03;;;;;;;7.40;1.70;;;6.80;99.90;;;;;;5059261;28;20131;-77
2023/12/20 09:08:29;;;;;;;9.50;1.60;;;6.50;99.90;;;;;;5053682;28;20037;-80
2023/12/20 09:10:55;;;;;;;7.53;1.80;;;6.30;99.90;;;;;;5056985;28;20135;-78
2023/12/20 09:13:22;;;;;;;9.23;1.95;;;6.10;99.90;;;;;;5060635;28;20024;-77
2023/12/20 09:15:47;;;;;;;12.07;1.45;;;6.00;99.90;;;;;;5053559;28;20083;-79
2023/12/20 09:18:13;;;;;;;7.25;1.30;;;5.90;99.90;;;;;;5059741;28;20029;-77
2023/12/20 09:20:38;;;;;;;5.75;1.00;;;6.10;99.90;;;;;;5055997;28;20060;-77
2023/12/20 09:23:04;;;;;;;8.80;1.38;;;5.60;99.90;;;;;;5059040;28;20040;-78
2023/12/20 09:25:30;;;;;;;6.30;1.33;;;5.50;99.90;;;;;;5042535;28;20088;-79
2023/12/20 09:27:55;;;;;;;6.43;1.02;;;5.40;99.90;;;;;;5055779;28;20032;-77
2023/12/20 09:30:21;;;;;;;7.25;1.25;;;5.40;99.90;;;;;;5056323;28;20037;-77
2023/12/20 09:32:47;;;;;;;4.47;0.70;;;5.30;99.90;;;;;;5057923;28;20493;-78
2023/12/20 09:35:12;;;;;;;6.53;1.50;;;5.30;99.90;;;;;;5040090;28;20500;-78
2023/12/20 09:37:41;;;;;;;6.97;0.82;;;5.30;99.90;;;;;;5055325;28;20098;-78
2023/12/20 09:40:10;;;;;;;6.78;0.90;;;5.30;99.90;;;;;;5056081;28;20043;-79
2023/12/20 09:42:57;;;;;;;6.57;1.65;;;5.30;99.90;;;;;;5052703;28;20037;-77
2023/12/20 09:45:24;;;;;;;5.93;1.20;;;5.60;99.90;;;;;;5057920;28;20049;-77
2023/12/20 09:47:52;;;;;;;7.25;1.20;;;5.40;99.90;;;;;;5058732;28;20041;-78
2023/12/20 09:50:19;;;;;;;8.13;1.08;;;5.50;99.90;;;;;;5058510;28;20041;-78
2023/12/20 09:52:49;;;;;;;5.72;0.98;;;5.50;99.90;;;;;;5060019;28;20113;-78
2023/12/20 09:55:17;;;;;;;8.30;1.13;;;5.50;99.90;;;;;;5060237;28;20037;-79
2023/12/20 09:57:42;;;;;;;10.02;1.23;;;5.60;99.90;;;;;;5057400;28;20463;-78
2023/12/20 10:00:09;;;;;;;4.93;0.98;;;5.60;99.90;;;;;;5058252;28;20053;-78
2023/12/20 10:02:38;;;;;;;6.85;1.08;;;5.60;99.90;;;;;;5062721;28;20037;-80
2023/12/20 10:05:08;;;;;;;7.63;1.30;;;5.60;99.90;;;;;;5085171;28;20030;-78
2023/12/20 10:07:35;;;;;;;8.77;1.50;;;5.60;99.90;;;;;;5038786;28;20500;-79
2023/12/20 10:10:02;;;;;;;9.80;1.10;;;5.70;99.90;;;;;;5034278;28;20033;-79
2023/12/20 10:12:27;;;;;;;10.20;1.58;;;5.70;99.90;;;;;;5078460;28;20042;-77
2023/12/20 10:14:53;;;;;;;11.40;1.05;;;6.50;99.90;;;;;;5059307;28;20030;-78
2023/12/20 10:17:21;;;;;;;11.50;1.20;;;5.90;99.90;;;;;;5049084;28;20062;-77
2023/12/20 10:19:47;;;;;;;7.47;1.45;;;5.90;99.90;;;;;;5080362;28;20037;-78
2023/12/20 10:22:12;;;;;;;13.38;1.85;;;5.90;99.90;;;;;;5083233;28;20063;-79
2023/12/20 10:24:39;;;;;;;6.97;1.40;;;5.90;99.90;;;;;;5088383;28;20385;-79
2023/12/20 10:27:06;;;;;;;6.82;1.60;;;5.90;99.90;;;;;;5052645;28;20064;-79
2023/12/20 10:29:38;;;;;;;9.80;1.63;;;5.90;99.90;;;;;;5054043;28;20698;-78
2023/12/20 10:32:31;;;;;;;9.55;1.50;;;6.00;99.90;;;;;;5081371;28;20033;-77
2023/12/20 10:34:59;;;;;;;11.43;1.15;;;6.20;99.90;;;;;;5038450;28;20052;-80
2023/12/20 10:37:24;;;;;;;12.65;2.08;;;6.10;99.90;;;;;;5060150;28;20041;-79
2023/12/20 10:39:57;;;;;;;8.50;1.70;;;6.20;99.90;;;;;;5063908;28;20040;-80
2023/12/20 10:42:26;;;;;;;7.45;1.40;;;6.30;99.90;;;;;;5063389;28;20041;-79
2023/12/20 10:44:53;;;;;;;14.32;2.20;;;7.30;99.90;;;;;;5061277;28;20067;-80
2023/12/20 10:47:20;;;;;;;8.23;1.48;;;6.50;99.90;;;;;;5046929;28;20032;-80
2023/12/20 10:49:46;;;;;;;14.13;1.58;;;6.50;99.90;;;;;;5070404;28;20051;-80
2023/12/20 10:52:12;;;;;;;11.52;1.95;;;6.50;99.90;;;;;;5048923;28;20101;-80
2023/12/20 10:54:41;;;;;;;12.45;1.70;;;7.00;99.90;;;;;;5059289;28;20062;-80
2023/12/20 10:57:07;;;;;;;11.27;1.83;;;6.40;99.90;;;;;;5088917;28;20072;-80
2023/12/20 10:59:36;;;;;;;8.10;1.58;;;6.40;99.90;;;;;;5086064;28;20105;-80
2023/12/20 11:02:05;;;;;;;16.27;2.40;;;6.40;99.90;;;;;;5063879;28;20087;-79
2023/12/20 11:04:36;;;;;;;8.88;1.75;;;6.80;99.90;;;;;;5046136;28;20033;-80
2023/12/20 11:07:31;;;;;;;14.80;1.95;;;7.30;99.90;;;;;;5060255;28;20041;-80
2023/12/20 11:10:12;;;;;;;10.75;1.45;;;6.50;99.90;;;;;;5057317;28;20044;-79
2023/12/20 11:12:41;;;;;;;11.75;1.80;;;6.50;99.90;;;;;;5063996;28;20048;-80
2023/12/20 11:15:08;;;;;;;10.57;1.77;;;6.60;99.90;;;;;;5044198;28;20096;-80
2023/12/20 11:17:33;;;;;;;11.25;1.83;;;6.60;99.90;;;;;;5056926;28;20040;-81
2023/12/20 11:20:01;;;;;;;14.90;1.88;;;6.60;99.90;;;;;;5074875;28;20055;-79
2023/12/20 11:22:29;;;;;;;12.75;1.73;;;6.90;99.90;;;;;;5051219;28;20329;-79
2023/12/20 11:25:02;;;;;;;10.65;1.50;;;6.70;99.90;;;;;;5062406;28;20037;-79
2023/12/20 11:27:28;;;;;;;13.45;2.83;;;6.70;99.90;;;;;;5052825;28;20063;-79
2023/12/20 11:29:56;;;;;;;9.48;1.60;;;7.30;99.90;;;;;;5058933;28;20072;-79
2023/12/20 11:32:31;;;;;;;8.57;1.45;;;7.20;99.90;;;;;;5063918;28;20049;-80
2023/12/20 11:34:59;;;;;;;11.00;1.98;;;6.80;99.90;;;;;;5059978;28;20040;-79
2023/12/20 11:37:32;;;;;;;10.02;1.80;;;7.00;99.90;;;;;;5065764;28;20041;-79
2023/12/20 11:40:03;;;;;;;10.30;1.43;;;6.80;99.90;;;;;;5063688;28;20047;-79
2023/12/20 11:42:40;;;;;;;16.73;2.60;;;6.90;99.90;;;;;;5062061;28;20037;-78
2023/12/20 11:45:15;;;;;;;15.27;3.28;;;7.00;99.90;;;;;;5061053;28;20374;-79
2023/12/20 11:47:43;;;;;;;12.10;2.45;;;7.00;99.90;;;;;;5061916;28;20037;-78
2023/12/20 11:50:09;;;;;;;13.82;2.95;;;7.40;99.90;;;;;;5066548;28;20033;-78
2023/12/20 11:52:35;;;;;;;14.88;3.42;;;7.50;99.90;;;;;;5064812;28;20049;-79
2023/12/20 11:55:00;;;;;;;9.77;1.83;;;7.90;99.90;;;;;;5065997;28;20045;-78
2023/12/20 11:57:26;;;;;;;13.15;1.92;;;7.50;99.90;;;;;;5068408;28;20053;-80
2023/12/20 11:59:52;;;;;;;11.73;1.90;;;7.10;99.90;;;;;;5062111;28;20119;-80
2023/12/20 12:02:17;;;;;;;10.40;2.00;;;7.70;99.90;;;;;;5059925;28;20052;-80
2023/12/20 12:04:43;;;;;;;10.27;2.25;;;7.10;99.90;;;;;;5064517;28;20040;-80
2023/12/20 12:07:09;;;;;;;15.23;2.10;;;7.30;99.90;;;;;;5046566;28;20033;-80
2023/12/20 12:09:34;;;;;;;11.35;2.10;;;7.20;99.90;;;;;;5062849;28;20040;-79
2023/12/20 12:12:00;;;;;;;14.57;2.35;;;7.20;99.90;;;;;;5065318;28;20036;-80
2023/12/20 12:14:26;;;;;;;13.60;2.63;;;7.20;99.90;;;;;;5060625;28;20051;-79
2023/12/20 12:16:53;;;;;;;9.65;2.15;;;7.70;99.90;;;;;;5062797;28;20044;-79
2023/12/20 12:19:26;;;;;;;11.15;2.42;;;8.10;99.90;;;;;;5061361;28;20049;-79
2023/12/20 12:22:10;;;;;;;13.07;3.15;;;7.20;99.90;;;;;;5085094;28;20065;-79
2023/12/20 12:24:36;;;;;;;15.75;2.78;;;7.20;99.90;;;;;;5046342;28;20059;-79
2023/12/20 12:27:01;;;;;;;10.43;2.10;;;8.00;99.90;;;;;;5047814;28;20467;-78
2023/12/20 12:29:27;;;;;;;9.60;1.92;;;7.30;99.90;;;;;;5064678;28;20148;-79
2023/12/20 12:31:53;;;;;;;11.10;1.98;;;7.30;99.90;;;;;;5059836;28;20029;-80
2023/12/20 12:34:19;;;;;;;9.43;1.58;;;7.30;99.90;;;;;;5061503;28;20045;-80
2023/12/20 12:36:45;;;;;;;10.02;1.73;;;7.30;99.90;;;;;;5062853;28;20033;-79
2023/12/20 12:39:16;;;;;;;9.82;1.42;;;7.90;99.90;;;;;;5062189;28;20041;-80
2023/12/20 12:41:42;;;;;;;13.10;2.10;;;7.50;99.90;;;;;;5062626;28;20045;-79
2023/12/20 12:44:08;;;;;;;9.43;1.60;;;7.20;99.90;;;;;;5062139;28;20577;-80